createdAt,value
2017-12-24T00:02:31.235Z,5.70
2017-12-24T00:05:36.728Z,4.60
2017-12-24T00:08:43.105Z,5.50
2017-12-24T00:11:48.521Z,4.63
2017-12-24T00:14:54.030Z,4.33
2017-12-24T00:17:58.730Z,4.60
2017-12-24T00:21:03.988Z,4.73
2017-12-24T00:24:08.794Z,4.50
2017-12-24T00:27:14.206Z,4.30
2017-12-24T00:30:20.115Z,4.27
2017-12-24T00:33:24.938Z,4.60
2017-12-24T00:36:29.663Z,4.40
2017-12-24T00:39:34.769Z,4.30
2017-12-24T00:42:42.398Z,5.00
2017-12-24T00:45:47.634Z,4.63
2017-12-24T00:48:53.018Z,4.43
2017-12-24T00:51:58.958Z,4.60
2017-12-24T00:55:05.019Z,5.17
2017-12-24T00:58:10.318Z,4.50
2017-12-24T01:01:16.442Z,4.40
2017-12-24T01:04:21.939Z,4.23
2017-12-24T01:07:27.338Z,4.30
2017-12-24T01:10:33.178Z,4.30
2017-12-24T01:13:38.258Z,4.27
2017-12-24T01:16:43.202Z,4.37
2017-12-24T01:19:48.677Z,4.23
2017-12-24T01:22:53.358Z,4.23
2017-12-24T01:25:58.820Z,3.90
2017-12-24T01:29:03.934Z,3.90
2017-12-24T01:32:09.795Z,3.00
2017-12-24T01:35:15.419Z,3.37
2017-12-24T01:38:20.326Z,2.87
2017-12-24T01:41:25.996Z,2.80
2017-12-24T01:44:31.060Z,3.20
2017-12-24T01:47:36.245Z,3.70
2017-12-24T01:50:41.743Z,2.97
2017-12-24T01:53:47.516Z,3.97
2017-12-24T01:56:53.548Z,3.97
2017-12-24T01:59:58.270Z,4.30
2017-12-24T02:03:06.794Z,4.13
2017-12-24T02:06:11.641Z,3.90
2017-12-24T02:09:19.467Z,4.90
2017-12-24T02:12:24.703Z,5.00
2017-12-24T02:15:29.693Z,5.00
2017-12-24T02:18:34.426Z,5.00
2017-12-24T02:21:39.218Z,5.00
2017-12-24T02:24:44.486Z,5.67
2017-12-24T02:27:50.970Z,6.07
2017-12-24T02:30:57.586Z,5.97
2017-12-24T02:34:02.349Z,6.07
2017-12-24T02:37:09.268Z,5.77
2017-12-24T02:40:14.771Z,6.07
2017-12-24T02:43:20.289Z,5.77
2017-12-24T02:46:26.638Z,6.10
2017-12-24T02:49:31.889Z,5.57
2017-12-24T02:52:36.757Z,5.70
2017-12-24T02:55:42.728Z,5.77
2017-12-24T02:58:47.670Z,5.90
2017-12-24T03:01:52.478Z,4.80
2017-12-24T03:04:57.998Z,4.67
2017-12-24T03:08:04.327Z,4.47
2017-12-24T03:11:09.292Z,4.10
2017-12-24T03:14:14.555Z,3.57
2017-12-24T03:17:19.658Z,3.40
2017-12-24T03:20:24.574Z,2.47
2017-12-24T03:23:29.854Z,3.30
2017-12-24T03:26:35.196Z,3.70
2017-12-24T03:29:40.066Z,3.37
2017-12-24T03:32:44.928Z,2.50
2017-12-24T03:35:49.802Z,2.70
2017-12-24T03:38:55.606Z,2.50
2017-12-24T03:42:00.433Z,2.50
2017-12-24T03:45:06.855Z,2.30
2017-12-24T03:48:13.238Z,2.90
2017-12-24T03:51:18.814Z,2.30
2017-12-24T03:54:24.321Z,2.20
2017-12-24T03:57:30.193Z,2.10
2017-12-24T04:00:35.433Z,2.07
2017-12-24T04:03:40.274Z,1.67
2017-12-24T04:06:45.677Z,1.83
2017-12-24T04:09:50.835Z,1.17
2017-12-24T04:12:56.034Z,1.00
2017-12-24T04:16:02.210Z,1.00
2017-12-24T04:19:07.767Z,1.00
2017-12-24T04:22:12.845Z,0.83
2017-12-24T04:25:19.427Z,0.70
2017-12-24T04:28:24.418Z,1.07
2017-12-24T04:31:29.694Z,0.83
2017-12-24T04:34:35.597Z,1.10
2017-12-24T04:37:42.228Z,0.77
2017-12-24T04:40:48.700Z,0.80
2017-12-24T04:43:53.510Z,2.33
2017-12-24T04:46:59.181Z,3.10
2017-12-24T04:50:04.879Z,1.43
2017-12-24T04:53:10.268Z,0.63
2017-12-24T04:56:16.334Z,0.90
2017-12-24T04:59:22.071Z,0.97
2017-12-24T05:02:27.350Z,0.90
2017-12-24T05:05:33.058Z,0.80
2017-12-24T05:08:38.663Z,0.93
2017-12-24T05:11:43.406Z,0.80
2017-12-24T05:14:48.786Z,0.90
2017-12-24T05:17:55.185Z,0.80
2017-12-24T05:21:00.839Z,0.90
2017-12-24T05:24:07.226Z,1.17
2017-12-24T05:27:12.276Z,1.00
2017-12-24T05:30:17.556Z,1.07
2017-12-24T05:33:22.675Z,1.27
2017-12-24T05:36:27.610Z,1.30
2017-12-24T05:39:32.923Z,1.30
2017-12-24T05:42:37.812Z,1.03
2017-12-24T05:45:42.618Z,1.40
2017-12-24T05:48:47.764Z,1.00
2017-12-24T05:51:54.064Z,0.80
2017-12-24T05:54:59.598Z,1.00
2017-12-24T05:58:04.685Z,1.00
2017-12-24T06:01:09.426Z,0.80
2017-12-24T06:04:15.062Z,0.87
2017-12-24T06:07:20.705Z,1.00
2017-12-24T06:10:25.709Z,0.80
2017-12-24T06:13:31.042Z,1.00
2017-12-24T06:16:36.398Z,1.10
2017-12-24T06:19:41.947Z,1.03
2017-12-24T06:22:47.530Z,1.13
2017-12-24T06:25:52.928Z,0.90
2017-12-24T06:28:58.583Z,1.20
2017-12-24T06:32:03.958Z,1.20
2017-12-24T06:35:09.567Z,1.50
2017-12-24T06:38:15.818Z,1.33
2017-12-24T06:41:20.844Z,1.60
2017-12-24T06:44:26.109Z,1.60
2017-12-24T06:47:31.185Z,1.67
2017-12-24T06:50:35.997Z,1.83
2017-12-24T06:53:41.458Z,1.77
2017-12-24T06:56:47.836Z,2.07
2017-12-24T06:59:52.750Z,1.97
2017-12-24T07:02:58.323Z,2.20
2017-12-24T07:06:04.035Z,2.33
2017-12-24T07:09:09.685Z,1.97
2017-12-24T07:12:15.274Z,2.17
2017-12-24T07:15:20.162Z,2.50
2017-12-24T07:18:25.531Z,1.93
2017-12-24T07:21:31.118Z,2.00
2017-12-24T07:24:37.652Z,2.07
2017-12-24T07:27:44.234Z,2.07
2017-12-24T07:30:48.900Z,2.00
2017-12-24T07:33:54.506Z,2.07
2017-12-24T07:36:59.353Z,1.60
2017-12-24T07:40:07.859Z,1.60
2017-12-24T07:43:13.553Z,1.60
2017-12-24T07:46:18.989Z,1.80
2017-12-24T07:49:24.517Z,1.40
2017-12-24T07:52:29.535Z,1.13
2017-12-24T07:55:36.890Z,1.50
2017-12-24T07:58:42.918Z,1.60
2017-12-24T08:01:47.716Z,1.40
2017-12-24T08:04:54.152Z,1.50
2017-12-24T08:08:00.865Z,1.10
2017-12-24T08:11:07.255Z,1.23
2017-12-24T08:14:12.378Z,1.00
2017-12-24T08:17:18.332Z,0.90
2017-12-24T08:20:23.498Z,1.20
2017-12-24T08:23:31.044Z,1.43
2017-12-24T08:26:39.035Z,1.17
2017-12-24T08:29:43.913Z,0.90
2017-12-24T08:32:50.267Z,1.30
2017-12-24T08:35:56.012Z,1.63
2017-12-24T08:39:02.844Z,1.30
2017-12-24T08:42:20.710Z,1.23
2017-12-24T08:45:32.187Z,1.33
2017-12-24T08:48:37.567Z,1.50
2017-12-24T08:51:54.844Z,1.30
2017-12-24T08:55:00.478Z,1.37
2017-12-24T08:58:05.552Z,0.90
2017-12-24T09:01:11.856Z,0.73
2017-12-24T09:04:17.905Z,1.07
2017-12-24T09:07:23.399Z,2.30
2017-12-24T09:10:28.982Z,1.00
2017-12-24T09:13:36.923Z,1.17
2017-12-24T09:16:43.106Z,0.80
2017-12-24T09:19:49.184Z,1.00
2017-12-24T09:22:53.930Z,0.90
2017-12-24T09:25:58.875Z,0.83
2017-12-24T09:29:04.318Z,1.17
2017-12-24T09:32:09.686Z,1.10
2017-12-24T09:35:14.963Z,1.00
2017-12-24T09:38:21.528Z,1.00
2017-12-24T09:41:27.171Z,0.60
2017-12-24T09:44:32.111Z,0.70
2017-12-24T09:47:43.174Z,0.87
2017-12-24T09:50:48.682Z,0.80
2017-12-24T09:53:54.490Z,1.00
2017-12-24T09:57:00.810Z,0.80
2017-12-24T10:00:06.790Z,1.30
2017-12-24T10:03:13.251Z,1.20
2017-12-24T10:06:18.193Z,1.63
2017-12-24T10:09:23.504Z,1.10
2017-12-24T10:12:28.455Z,1.40
2017-12-24T10:15:34.122Z,0.80
2017-12-24T10:18:40.517Z,1.13
2017-12-24T10:21:45.478Z,0.97
2017-12-24T10:24:50.340Z,0.90
2017-12-24T10:27:56.622Z,1.50
2017-12-24T10:31:01.665Z,0.80
2017-12-24T10:34:06.762Z,0.90
2017-12-24T10:37:12.531Z,0.80
2017-12-24T10:40:18.461Z,0.80
2017-12-24T10:43:23.523Z,0.70
2017-12-24T10:46:29.486Z,0.53
2017-12-24T10:49:34.672Z,0.87
2017-12-24T10:52:40.626Z,1.00
2017-12-24T10:55:52.253Z,1.00
2017-12-24T10:58:57.970Z,1.10
2017-12-24T11:02:04.094Z,0.70
2017-12-24T11:05:09.370Z,0.70
2017-12-24T11:08:14.494Z,0.70
2017-12-24T11:11:20.229Z,0.70
2017-12-24T11:14:28.187Z,0.90
2017-12-24T11:17:33.566Z,0.90
2017-12-24T11:20:39.106Z,1.10
2017-12-24T11:23:46.054Z,1.27
2017-12-24T11:26:51.326Z,1.60
2017-12-24T11:29:56.974Z,2.00
2017-12-24T11:33:03.050Z,1.93
2017-12-24T11:36:09.079Z,1.20
2017-12-24T11:39:14.548Z,0.70
2017-12-24T11:42:20.662Z,0.97
2017-12-24T11:45:26.254Z,1.30
2017-12-24T11:48:31.594Z,1.70
2017-12-24T11:51:37.382Z,1.20
2017-12-24T11:54:42.414Z,1.10
2017-12-24T11:57:47.930Z,1.83
2017-12-24T12:00:52.918Z,1.30
2017-12-24T12:03:57.963Z,2.13
2017-12-24T12:07:03.338Z,2.07
2017-12-24T12:10:09.490Z,0.90
2017-12-24T12:13:15.222Z,1.00
2017-12-24T12:16:20.970Z,1.03
2017-12-24T12:19:26.637Z,1.10
2017-12-24T12:22:31.881Z,0.80
2017-12-24T12:25:44.204Z,1.00
2017-12-24T12:28:49.698Z,0.80
2017-12-24T12:31:54.942Z,1.10
2017-12-24T12:34:59.878Z,0.93
2017-12-24T12:38:05.150Z,0.90
2017-12-24T12:41:10.702Z,1.07
2017-12-24T12:44:16.662Z,0.60
2017-12-24T12:47:22.279Z,0.67
2017-12-24T12:50:27.195Z,0.70
2017-12-24T12:53:32.886Z,0.60
2017-12-24T12:56:37.610Z,0.70
2017-12-24T12:59:43.694Z,0.60
2017-12-24T13:02:49.106Z,0.60
2017-12-24T13:05:54.282Z,0.60
2017-12-24T13:08:59.882Z,0.87
2017-12-24T13:12:05.426Z,0.70
2017-12-24T13:15:10.686Z,0.60
2017-12-24T13:18:15.702Z,0.70
2017-12-24T13:21:21.511Z,0.80
2017-12-24T13:24:26.891Z,0.90
2017-12-24T13:27:32.427Z,0.70
2017-12-24T13:30:38.618Z,0.97
2017-12-24T13:33:43.530Z,0.60
2017-12-24T13:36:48.922Z,0.97
2017-12-24T13:39:55.423Z,0.70
2017-12-24T13:43:01.014Z,0.80
2017-12-24T13:46:06.646Z,0.93
2017-12-24T13:49:11.420Z,0.90
2017-12-24T13:52:16.779Z,1.13
2017-12-24T13:55:21.890Z,0.60
2017-12-24T13:58:30.174Z,0.80
2017-12-24T14:01:35.727Z,0.90
2017-12-24T14:04:41.455Z,0.60
2017-12-24T14:07:47.631Z,0.70
2017-12-24T14:10:53.010Z,1.00
2017-12-24T14:13:58.900Z,1.00
2017-12-24T14:17:04.551Z,0.80
2017-12-24T14:20:09.202Z,0.60
2017-12-24T14:23:14.296Z,0.80
2017-12-24T14:26:19.562Z,0.63
2017-12-24T14:29:24.716Z,1.27
2017-12-24T14:32:29.582Z,0.87
2017-12-24T14:35:35.032Z,1.00
2017-12-24T14:38:39.933Z,1.00
2017-12-24T14:41:45.006Z,0.83
2017-12-24T14:44:51.786Z,0.90
2017-12-24T14:47:57.249Z,1.07
2017-12-24T14:51:02.766Z,1.17
2017-12-24T14:54:08.212Z,1.40
2017-12-24T14:57:13.358Z,1.37
2017-12-24T15:00:19.420Z,9.60
2017-12-24T15:03:24.323Z,3.80
2017-12-24T15:06:30.042Z,1.80
2017-12-24T15:09:35.107Z,1.87
2017-12-24T15:12:40.741Z,1.97
2017-12-24T15:15:46.233Z,2.03
2017-12-24T15:18:51.341Z,2.70
2017-12-24T15:21:56.118Z,1.03
2017-12-24T15:25:01.282Z,1.10
2017-12-24T15:28:06.769Z,1.07
2017-12-24T15:31:11.803Z,1.40
2017-12-24T15:34:17.365Z,1.00
2017-12-24T15:37:23.080Z,1.13
2017-12-24T15:40:28.894Z,1.00
2017-12-24T15:43:35.257Z,1.20
2017-12-24T15:46:40.960Z,1.00
2017-12-24T15:49:45.818Z,1.10
2017-12-24T15:52:51.523Z,0.80
2017-12-24T15:55:56.593Z,1.27
2017-12-24T15:59:02.203Z,0.90
2017-12-24T16:02:07.823Z,1.10
2017-12-24T16:05:13.491Z,1.93
2017-12-24T16:08:19.173Z,1.43
2017-12-24T16:11:24.533Z,1.20
2017-12-24T16:14:30.009Z,1.43
2017-12-24T16:17:36.610Z,1.17
2017-12-24T16:20:42.265Z,0.80
2017-12-24T16:23:47.717Z,0.80
2017-12-24T16:26:52.682Z,0.70
2017-12-24T16:29:58.866Z,0.97
2017-12-24T16:33:04.026Z,4.60
2017-12-24T16:36:10.454Z,1.20
2017-12-24T16:39:16.320Z,0.90
2017-12-24T16:42:21.954Z,1.40
2017-12-24T16:45:27.115Z,0.90
2017-12-24T16:48:32.474Z,1.00
2017-12-24T16:51:38.246Z,0.80
2017-12-24T16:54:42.994Z,0.87
2017-12-24T16:57:48.349Z,1.30
2017-12-24T17:00:53.979Z,1.00
2017-12-24T17:03:59.878Z,1.90
2017-12-24T17:07:05.346Z,1.10
2017-12-24T17:10:10.502Z,1.40
2017-12-24T17:13:16.270Z,1.87
2017-12-24T17:16:21.185Z,1.33
2017-12-24T17:19:26.286Z,0.80
2017-12-24T17:22:32.039Z,1.10
2017-12-24T17:25:37.091Z,1.77
2017-12-24T17:28:43.510Z,0.90
2017-12-24T17:31:49.034Z,1.13
2017-12-24T17:34:55.246Z,0.80
2017-12-24T17:38:01.002Z,1.00
2017-12-24T17:41:06.366Z,0.93
2017-12-24T17:44:11.761Z,0.90
2017-12-24T17:47:16.915Z,0.90
2017-12-24T17:50:22.706Z,1.10
2017-12-24T17:53:27.645Z,0.87
2017-12-24T17:56:34.118Z,0.70
2017-12-24T17:59:39.038Z,1.20
2017-12-24T18:02:43.842Z,0.90
2017-12-24T18:05:49.892Z,0.70
2017-12-24T18:08:56.346Z,0.80
2017-12-24T18:12:01.293Z,0.80
2017-12-24T18:15:06.805Z,0.80
2017-12-24T18:18:12.139Z,0.80
2017-12-24T18:21:17.642Z,1.00
2017-12-24T18:24:22.554Z,1.30
2017-12-24T18:27:27.650Z,0.97
2017-12-24T18:30:33.363Z,1.00
2017-12-24T18:33:38.962Z,0.80
2017-12-24T18:36:44.382Z,0.73
2017-12-24T18:39:50.242Z,0.90
2017-12-24T18:42:56.642Z,0.80
2017-12-24T18:46:02.286Z,2.10
2017-12-24T18:49:07.678Z,1.30
2017-12-24T18:52:13.466Z,1.40
2017-12-24T18:55:18.830Z,1.40
2017-12-24T18:58:25.290Z,1.60
2017-12-24T19:01:31.220Z,1.57
2017-12-24T19:04:36.638Z,1.83
2017-12-24T19:07:42.770Z,1.30
2017-12-24T19:10:48.811Z,1.27
2017-12-24T19:13:53.690Z,1.30
2017-12-24T19:16:59.130Z,1.43
2017-12-24T19:20:04.230Z,1.50
2017-12-24T19:23:09.846Z,1.73
2017-12-24T19:26:16.069Z,1.60
2017-12-24T19:29:21.353Z,2.20
2017-12-24T19:32:26.730Z,1.90
2017-12-24T19:35:31.990Z,1.90
2017-12-24T19:38:37.548Z,1.70
2017-12-24T19:41:43.935Z,1.80
2017-12-24T19:44:49.506Z,1.93
2017-12-24T19:47:55.106Z,1.97
2017-12-24T19:51:00.366Z,1.60
2017-12-24T19:54:06.139Z,1.60
2017-12-24T19:57:11.134Z,1.40
2017-12-24T20:00:16.391Z,1.50
2017-12-24T20:03:21.671Z,1.30
2017-12-24T20:06:26.718Z,1.23
2017-12-24T20:09:32.698Z,1.17
2017-12-24T20:12:37.774Z,1.27
2017-12-24T20:15:44.110Z,1.10
2017-12-24T20:18:49.878Z,1.10
2017-12-24T20:21:56.502Z,0.90
2017-12-24T20:25:02.010Z,1.10
2017-12-24T20:28:07.102Z,1.10
2017-12-24T20:31:12.733Z,1.30
2017-12-24T20:34:18.574Z,1.30
2017-12-24T20:37:24.090Z,1.17
2017-12-24T20:40:29.646Z,1.00
2017-12-24T20:43:35.559Z,1.03
2017-12-24T20:46:41.104Z,1.37
2017-12-24T20:49:46.790Z,1.27
2017-12-24T20:52:52.142Z,0.93
2017-12-24T20:55:57.357Z,1.03
2017-12-24T20:59:03.264Z,1.27
2017-12-24T21:02:08.259Z,1.10
2017-12-24T21:05:13.750Z,1.00
2017-12-24T21:08:18.731Z,0.93
2017-12-24T21:11:24.214Z,0.97
2017-12-24T21:14:29.797Z,1.20
2017-12-24T21:17:35.494Z,0.80
2017-12-24T21:20:41.878Z,0.90
2017-12-24T21:23:47.626Z,0.93
2017-12-24T21:26:53.269Z,1.13
2017-12-24T21:29:59.040Z,1.03
2017-12-24T21:33:04.114Z,1.00
2017-12-24T21:36:09.033Z,0.97
2017-12-24T21:39:15.717Z,0.90
2017-12-24T21:42:20.989Z,1.17
2017-12-24T21:45:26.592Z,1.10
2017-12-24T21:48:31.539Z,1.30
2017-12-24T21:51:37.066Z,1.10
2017-12-24T21:54:43.395Z,1.07
2017-12-24T21:57:48.611Z,1.10
2017-12-24T22:00:54.642Z,0.90
2017-12-24T22:03:59.827Z,1.10
2017-12-24T22:07:06.209Z,0.80
2017-12-24T22:10:12.488Z,1.10
2017-12-24T22:13:17.630Z,0.83
2017-12-24T22:16:22.914Z,0.90
2017-12-24T22:19:36.030Z,0.87
2017-12-24T22:22:41.466Z,0.80
2017-12-24T22:25:47.206Z,0.80
2017-12-24T22:28:52.102Z,0.83
2017-12-24T22:31:57.011Z,1.70
2017-12-24T22:35:02.802Z,0.83
2017-12-24T22:38:07.706Z,0.60
2017-12-24T22:41:12.886Z,0.83
2017-12-24T22:44:18.349Z,0.70
2017-12-24T22:47:23.601Z,0.60
2017-12-24T22:50:28.589Z,0.70
2017-12-24T22:53:33.745Z,0.90
2017-12-24T22:56:40.314Z,0.83
2017-12-24T22:59:46.225Z,0.90
2017-12-24T23:02:52.018Z,0.60
2017-12-24T23:05:57.821Z,0.80
2017-12-24T23:09:02.554Z,0.70
2017-12-24T23:12:07.638Z,0.70
2017-12-24T23:15:13.145Z,0.80
2017-12-24T23:18:18.848Z,0.90
2017-12-24T23:21:24.909Z,0.80
2017-12-24T23:24:30.289Z,0.97
2017-12-24T23:27:35.010Z,0.80
2017-12-24T23:30:39.994Z,1.00
2017-12-24T23:33:45.643Z,0.63
2017-12-24T23:36:51.101Z,0.77
2017-12-24T23:39:56.766Z,0.80
2017-12-24T23:43:01.722Z,0.80
2017-12-24T23:46:07.344Z,0.70
2017-12-24T23:49:13.111Z,0.60
2017-12-24T23:52:18.741Z,0.67
2017-12-24T23:55:23.682Z,0.77
2017-12-24T23:58:29.847Z,0.90
